Time;durP1;ratioP1;P1;durP2;ratioP2;P2;SDS_P1;SDS_P2;PMS_P1;PMS_P2;Temp;Humidity;BMP_temperature;BMP_pressure;BME280_temperature;BME280_humidity;BME280_pressure;Samples;Min_cycle;Max_cycle;Signal;HPM_P1;HPM_P2
2021/11/08 00:02:02;;;;;;;12.97;3.27;;;8.90;99.90;;;;;;5026617;28;20232;-62
2021/11/08 00:04:32;;;;;;;14.53;3.80;;;8.90;99.90;;;;;;5019621;28;20240;-62
2021/11/08 00:07:01;;;;;;;11.27;3.53;;;9.00;99.90;;;;;;5023395;28;20232;-63
2021/11/08 00:09:30;;;;;;;14.23;3.43;;;8.90;99.90;;;;;;5018887;28;20268;-63
2021/11/08 00:11:59;;;;;;;17.07;3.67;;;9.00;99.90;;;;;;5025387;28;20264;-63
2021/11/08 00:14:27;;;;;;;14.73;3.83;;;8.90;99.90;;;;;;5025319;28;20320;-63
2021/11/08 00:17:04;;;;;;;11.57;3.80;;;9.00;99.90;;;;;;5026046;28;20751;-63
2021/11/08 00:20:00;;;;;;;15.07;3.37;;;8.90;99.90;;;;;;5024335;28;20308;-62
2021/11/08 00:22:28;;;;;;;14.80;4.23;;;8.90;99.90;;;;;;5019447;28;20323;-63
2021/11/08 00:24:57;;;;;;;11.27;3.27;;;9.00;99.90;;;;;;5025659;28;20569;-62
2021/11/08 00:27:25;;;;;;;13.67;3.57;;;8.90;99.90;;;;;;5026354;28;20270;-62
2021/11/08 00:29:53;;;;;;;13.83;3.93;;;9.00;99.90;;;;;;5026132;28;20240;-63
2021/11/08 00:32:22;;;;;;;15.07;3.90;;;9.00;99.90;;;;;;5029646;28;20386;-62
2021/11/08 00:34:50;;;;;;;15.40;4.27;;;9.10;99.90;;;;;;5030077;28;20236;-63
2021/11/08 00:37:19;;;;;;;14.87;3.77;;;9.10;99.90;;;;;;5029974;28;20765;-63
2021/11/08 00:39:47;;;;;;;11.50;4.00;;;9.10;99.90;;;;;;5030412;28;20607;-64
2021/11/08 00:42:15;;;;;;;14.80;3.73;;;9.10;99.90;;;;;;5023347;28;20321;-63
2021/11/08 00:44:43;;;;;;;13.43;4.30;;;9.20;99.90;;;;;;5029366;28;20228;-63
2021/11/08 00:47:11;;;;;;;15.47;3.90;;;9.20;99.90;;;;;;5029718;28;20339;-63
2021/11/08 00:49:41;;;;;;;16.40;4.13;;;9.10;99.90;;;;;;5030348;28;20225;-63
2021/11/08 00:52:10;;;;;;;12.90;3.93;;;9.10;99.90;;;;;;5029092;28;20326;-64
2021/11/08 00:54:39;;;;;;;15.67;4.20;;;9.10;99.90;;;;;;5029613;28;20263;-62
2021/11/08 00:57:12;;;;;;;14.20;3.63;;;9.10;99.90;;;;;;5029448;28;20286;-64
2021/11/08 00:59:40;;;;;;;18.87;4.03;;;9.20;99.90;;;;;;5030225;28;20351;-63
2021/11/08 01:02:10;;;;;;;17.70;4.57;;;9.10;99.90;;;;;;5027442;28;20236;-63
2021/11/08 01:04:39;;;;;;;21.53;4.47;;;9.10;99.90;;;;;;5029170;28;20263;-62
2021/11/08 01:07:10;;;;;;;16.03;3.60;;;9.10;99.90;;;;;;5029433;28;20275;-63
2021/11/08 01:09:40;;;;;;;16.23;3.67;;;9.20;99.90;;;;;;5029684;28;20798;-62
2021/11/08 01:12:10;;;;;;;20.30;4.03;;;9.10;99.90;;;;;;5029124;28;20315;-63
2021/11/08 01:14:38;;;;;;;18.93;3.77;;;9.10;99.90;;;;;;5029302;28;20598;-63
2021/11/08 01:17:06;;;;;;;20.60;4.17;;;9.10;99.90;;;;;;5029129;28;20228;-62
2021/11/08 01:19:35;;;;;;;20.43;4.50;;;9.10;99.90;;;;;;5029420;28;20652;-62
2021/11/08 01:22:07;;;;;;;17.10;3.80;;;9.00;99.90;;;;;;5029237;28;20709;-62
2021/11/08 01:24:39;;;;;;;21.97;3.60;;;9.00;99.90;;;;;;5029320;28;20909;-63
2021/11/08 01:27:09;;;;;;;18.40;3.20;;;9.00;99.90;;;;;;5028837;28;20331;-62
2021/11/08 01:29:38;;;;;;;16.70;3.50;;;9.00;99.90;;;;;;5029197;28;20813;-62
2021/11/08 01:32:08;;;;;;;15.60;3.60;;;9.00;99.90;;;;;;5027438;28;20255;-63
2021/11/08 01:34:36;;;;;;;16.33;3.60;;;9.00;99.90;;;;;;5028284;28;20605;-63
2021/11/08 01:37:05;;;;;;;20.43;3.67;;;9.00;99.90;;;;;;5023182;28;20905;-63
2021/11/08 01:39:34;;;;;;;15.40;3.43;;;8.90;99.90;;;;;;5029211;28;20263;-62
2021/11/08 01:42:07;;;;;;;12.50;2.87;;;9.00;99.90;;;;;;5022711;28;20233;-62
2021/11/08 01:44:36;;;;;;;14.70;3.03;;;9.00;99.90;;;;;;5028747;28;20263;-62
2021/11/08 01:47:05;;;;;;;10.77;2.63;;;8.90;99.90;;;;;;5026775;28;20263;-63
2021/11/08 01:49:34;;;;;;;10.70;2.47;;;8.90;99.90;;;;;;5029357;28;20724;-63
2021/11/08 01:52:04;;;;;;;8.33;2.07;;;9.00;99.90;;;;;;5028229;28;20548;-62
2021/11/08 01:54:37;;;;;;;10.83;2.53;;;8.90;99.90;;;;;;5026938;28;20600;-63
2021/11/08 01:57:08;;;;;;;8.60;1.97;;;8.90;99.90;;;;;;5026853;28;20315;-63
2021/11/08 01:59:36;;;;;;;13.97;2.30;;;8.90;99.90;;;;;;5028743;28;20242;-63
2021/11/08 02:02:05;;;;;;;9.87;2.47;;;8.90;99.90;;;;;;5028557;28;20228;-63
2021/11/08 02:04:33;;;;;;;10.07;2.60;;;8.90;99.90;;;;;;5020509;28;20229;-62
2021/11/08 02:07:02;;;;;;;14.13;2.90;;;8.90;99.90;;;;;;5026916;28;20343;-63
2021/11/08 02:09:30;;;;;;;11.90;2.57;;;8.90;99.90;;;;;;5028746;28;20236;-62
2021/11/08 02:11:59;;;;;;;16.90;3.67;;;8.90;99.90;;;;;;5023020;28;20229;-64
2021/11/08 02:14:28;;;;;;;11.93;2.77;;;8.90;99.90;;;;;;5027135;28;20348;-63
2021/11/08 02:16:56;;;;;;;15.07;3.60;;;8.90;99.90;;;;;;5028078;28;20232;-62
2021/11/08 02:19:27;;;;;;;14.33;3.27;;;8.90;99.90;;;;;;5027400;28;20320;-62
2021/11/08 02:21:59;;;;;;;16.73;3.43;;;8.90;99.90;;;;;;5025493;28;20229;-63
2021/11/08 02:24:28;;;;;;;17.07;3.43;;;8.80;99.90;;;;;;5022543;28;20252;-63
2021/11/08 02:26:57;;;;;;;11.20;2.63;;;8.80;99.90;;;;;;5027761;28;20236;-62
2021/11/08 02:29:25;;;;;;;15.70;3.07;;;8.80;99.90;;;;;;5028092;28;20645;-62
2021/11/08 02:31:56;;;;;;;18.03;3.27;;;8.80;99.90;;;;;;5026113;28;20244;-62
2021/11/08 02:34:24;;;;;;;15.03;3.20;;;8.80;99.90;;;;;;5026689;28;20228;-63
2021/11/08 02:36:52;;;;;;;13.90;3.53;;;8.80;99.90;;;;;;5028023;28;20264;-63
2021/11/08 02:39:27;;;;;;;15.87;2.80;;;8.80;99.90;;;;;;5028120;28;20232;-62
2021/11/08 02:41:55;;;;;;;15.90;2.63;;;8.80;99.90;;;;;;5025452;28;20323;-62
2021/11/08 02:44:23;;;;;;;13.80;3.50;;;8.80;99.90;;;;;;5027191;28;20791;-63
2021/11/08 02:46:53;;;;;;;14.53;3.27;;;8.80;99.90;;;;;;5027724;28;20236;-64
2021/11/08 02:49:25;;;;;;;16.77;3.30;;;8.70;99.90;;;;;;5028244;28;20236;-62
2021/11/08 02:52:00;;;;;;;14.00;3.13;;;8.70;99.90;;;;;;5027224;28;20298;-62
2021/11/08 02:54:33;;;;;;;12.97;2.80;;;8.80;99.90;;;;;;5021178;28;20247;-62
2021/11/08 02:57:02;;;;;;;15.50;3.00;;;8.80;99.90;;;;;;5027243;28;20335;-62
2021/11/08 02:59:31;;;;;;;13.43;3.23;;;8.80;99.90;;;;;;5019604;28;20240;-63
2021/11/08 03:02:01;;;;;;;16.20;2.90;;;8.70;99.90;;;;;;5026529;28;20239;-62
2021/11/08 03:04:32;;;;;;;17.87;3.17;;;8.70;99.90;;;;;;5025424;28;20236;-62
2021/11/08 03:07:00;;;;;;;12.03;3.37;;;8.70;99.90;;;;;;5026528;28;20552;-62
2021/11/08 03:09:33;;;;;;;12.30;2.83;;;8.60;99.90;;;;;;5027437;28;20323;-63
2021/11/08 03:12:10;;;;;;;14.27;3.50;;;8.70;99.90;;;;;;5025874;28;20236;-62
2021/11/08 03:14:42;;;;;;;16.37;3.30;;;8.70;99.90;;;;;;5020062;28;20719;-62
2021/11/08 03:17:13;;;;;;;15.60;3.00;;;8.70;99.90;;;;;;5027023;28;20640;-62
2021/11/08 03:19:43;;;;;;;14.33;2.83;;;8.60;99.90;;;;;;5026984;28;20233;-62
2021/11/08 03:22:15;;;;;;;13.57;2.97;;;8.70;99.90;;;;;;5026615;28;20319;-63
2021/11/08 03:24:51;;;;;;;15.77;3.10;;;8.70;99.90;;;;;;5027133;28;20715;-63
2021/11/08 03:27:25;;;;;;;16.17;2.53;;;8.60;99.90;;;;;;5026302;28;20258;-62
2021/11/08 03:29:53;;;;;;;13.50;3.30;;;8.60;99.90;;;;;;5026631;28;20706;-63
2021/11/08 03:32:22;;;;;;;13.47;2.67;;;8.60;99.90;;;;;;5027632;28;20954;-62
2021/11/08 03:34:56;;;;;;;13.27;2.60;;;8.60;99.90;;;;;;5021932;28;20599;-62
2021/11/08 03:37:25;;;;;;;10.90;2.67;;;8.70;99.90;;;;;;5026552;28;20235;-62
2021/11/08 03:39:56;;;;;;;10.93;2.20;;;8.70;99.90;;;;;;5027101;28;20250;-62
2021/11/08 03:42:51;;;;;;;15.10;2.80;;;8.60;99.90;;;;;;5021513;28;20224;-62
2021/11/08 03:45:20;;;;;;;15.23;3.17;;;8.60;99.90;;;;;;5026501;28;20240;-62
2021/11/08 03:47:48;;;;;;;17.20;2.67;;;8.70;99.90;;;;;;5026774;28;20240;-62
2021/11/08 03:50:17;;;;;;;11.50;2.53;;;8.70;99.90;;;;;;5026560;28;20790;-62
2021/11/08 03:52:45;;;;;;;12.70;2.57;;;8.60;99.90;;;;;;5026803;28;20290;-62
2021/11/08 03:55:15;;;;;;;19.30;3.87;;;8.70;99.90;;;;;;5026206;28;20326;-62
2021/11/08 03:57:43;;;;;;;14.07;2.33;;;8.70;99.90;;;;;;5026667;28;20244;-63
2021/11/08 04:00:13;;;;;;;17.50;3.17;;;8.60;99.90;;;;;;5026518;28;20259;-63
2021/11/08 04:02:43;;;;;;;14.90;2.50;;;8.60;99.90;;;;;;5027239;28;20239;-63
2021/11/08 04:05:13;;;;;;;13.50;2.77;;;8.60;99.90;;;;;;5029643;28;20232;-63
2021/11/08 04:07:41;;;;;;;15.33;3.03;;;8.60;99.90;;;;;;5027942;28;20240;-63
2021/11/08 04:10:12;;;;;;;14.73;2.70;;;8.50;99.90;;;;;;5033502;28;20239;-62
2021/11/08 04:12:42;;;;;;;12.23;2.27;;;8.50;99.90;;;;;;5032210;28;20315;-63
2021/11/08 04:15:12;;;;;;;13.63;2.40;;;8.50;99.90;;;;;;5033100;28;20318;-62
2021/11/08 04:17:44;;;;;;;12.70;2.43;;;8.40;99.90;;;;;;5033077;28;20730;-63
2021/11/08 04:20:16;;;;;;;13.17;2.30;;;8.40;99.90;;;;;;5033571;28;20377;-62
2021/11/08 04:22:46;;;;;;;13.70;2.33;;;8.50;99.90;;;;;;5032757;28;20236;-63
2021/11/08 04:25:14;;;;;;;13.10;2.23;;;8.40;99.90;;;;;;5032613;28;20267;-63
2021/11/08 04:27:45;;;;;;;15.50;2.80;;;8.50;99.90;;;;;;5032858;28;20252;-63
2021/11/08 04:30:14;;;;;;;14.60;2.47;;;8.50;99.90;;;;;;5031952;28;20244;-62
2021/11/08 04:32:49;;;;;;;11.70;2.37;;;8.40;99.90;;;;;;5032919;28;20239;-63
2021/11/08 04:35:22;;;;;;;13.77;2.30;;;8.40;99.90;;;;;;5031128;28;20240;-62
2021/11/08 04:40:40;;;;;;;16.47;2.70;;;8.30;99.90;;;;;;5025418;28;20747;-63
2021/11/08 04:43:15;;;;;;;14.27;3.27;;;8.30;99.90;;;;;;5032635;28;20228;-62
2021/11/08 04:46:08;;;;;;;10.87;2.77;;;8.30;99.90;;;;;;5032479;28;20263;-63
2021/11/08 04:48:52;;;;;;;14.33;2.33;;;8.30;99.90;;;;;;5028073;28;20612;-62
2021/11/08 04:51:31;;;;;;;13.50;2.63;;;8.30;99.90;;;;;;5032963;28;20232;-62
2021/11/08 04:54:07;;;;;;;15.97;2.77;;;8.30;99.90;;;;;;5028725;28;20240;-62
2021/11/08 05:22:05;;;;;;;12.63;2.60;;;8.20;99.90;;;;;;5026947;28;20303;-62
2021/11/08 05:24:43;;;;;;;17.07;2.40;;;8.20;99.90;;;;;;5020367;28;20315;-62
2021/11/08 05:30:04;;;;;;;11.27;2.20;;;8.20;99.90;;;;;;5025016;28;20248;-62
2021/11/08 05:32:36;;;;;;;14.20;2.37;;;8.20;99.90;;;;;;5021444;28;20240;-62
2021/11/08 05:35:06;;;;;;;12.33;2.27;;;8.20;99.90;;;;;;5028681;28;20319;-63
2021/11/08 05:37:41;;;;;;;11.73;2.53;;;8.20;99.90;;;;;;5029061;28;20315;-63
2021/11/08 05:40:12;;;;;;;12.27;2.23;;;8.20;99.90;;;;;;5029251;28;20258;-62
2021/11/08 05:42:41;;;;;;;16.93;3.17;;;8.10;99.90;;;;;;5029058;28;20271;-63
2021/11/08 05:45:11;;;;;;;9.43;2.17;;;8.10;99.90;;;;;;5027330;28;20595;-62
2021/11/08 05:47:41;;;;;;;9.97;2.27;;;8.00;99.90;;;;;;5028695;28;20311;-62
2021/11/08 05:50:13;;;;;;;10.80;2.27;;;8.10;99.90;;;;;;5025818;28;20248;-62
2021/11/08 05:52:41;;;;;;;12.33;2.43;;;8.10;99.90;;;;;;5028198;28;20311;-63
2021/11/08 05:55:11;;;;;;;13.33;2.70;;;8.10;99.90;;;;;;5028300;28;20244;-62
2021/11/08 06:50:10;;;;;;;13.07;1.90;;;7.90;99.90;;;;;;5021934;28;20708;-62
2021/11/08 06:52:40;;;;;;;9.67;2.30;;;7.90;99.90;;;;;;5023955;28;20247;-62
2021/11/08 06:55:09;;;;;;;11.43;2.07;;;7.90;99.90;;;;;;5024370;28;20247;-62
2021/11/08 06:57:45;;;;;;;15.33;2.33;;;7.90;99.90;;;;;;5017875;28;20248;-62
2021/11/08 07:00:16;;;;;;;14.97;2.07;;;7.90;99.90;;;;;;5019555;28;20654;-62
2021/11/08 07:02:44;;;;;;;9.67;1.97;;;7.80;99.90;;;;;;5024194;28;21306;-62
2021/11/08 07:05:13;;;;;;;10.60;1.70;;;7.80;99.90;;;;;;5022797;28;20323;-62
2021/11/08 07:07:43;;;;;;;13.90;2.63;;;7.80;99.90;;;;;;5024214;28;20630;-62
2021/11/08 07:10:13;;;;;;;13.67;2.63;;;7.80;99.90;;;;;;5023879;28;20699;-62
2021/11/08 07:12:41;;;;;;;10.27;2.03;;;7.70;99.90;;;;;;5024099;28;20232;-62
2021/11/08 07:15:10;;;;;;;9.00;1.67;;;7.70;99.90;;;;;;5024073;28;20328;-62
2021/11/08 07:17:38;;;;;;;12.60;2.33;;;7.70;99.90;;;;;;5024125;28;20251;-61
2021/11/08 07:20:08;;;;;;;12.43;2.13;;;7.70;99.90;;;;;;5024131;28;20259;-62
2021/11/08 07:22:36;;;;;;;13.67;2.03;;;7.60;99.90;;;;;;5023534;28;20240;-62
2021/11/08 07:25:07;;;;;;;9.73;2.20;;;7.60;99.90;;;;;;5023917;28;20240;-62
2021/11/08 07:27:35;;;;;;;11.53;1.87;;;7.60;99.90;;;;;;5024259;28;20244;-62
2021/11/08 07:30:08;;;;;;;13.43;2.00;;;7.70;99.90;;;;;;5023937;28;20267;-62
2021/11/08 07:32:36;;;;;;;12.23;1.90;;;7.70;99.90;;;;;;5023901;28;20244;-62
2021/11/08 07:35:05;;;;;;;12.30;1.80;;;7.70;99.90;;;;;;5023374;28;20236;-63
2021/11/08 07:37:34;;;;;;;7.73;1.70;;;7.70;99.90;;;;;;5024073;28;20782;-62
2021/11/08 07:40:02;;;;;;;9.23;1.70;;;7.70;99.90;;;;;;5023489;28;20248;-62
2021/11/08 07:42:31;;;;;;;9.93;2.47;;;7.70;99.90;;;;;;5020391;28;20231;-62
2021/11/08 07:44:59;;;;;;;10.33;2.17;;;7.70;99.90;;;;;;5023325;28;20244;-63
2021/11/08 07:47:28;;;;;;;11.17;2.10;;;7.70;99.90;;;;;;5015562;28;20243;-63
2021/11/08 07:49:56;;;;;;;9.40;2.20;;;7.70;99.90;;;;;;5019411;28;20248;-62
2021/11/08 07:52:24;;;;;;;13.87;2.23;;;7.80;99.90;;;;;;5023299;28;20263;-63
2021/11/08 07:54:52;;;;;;;9.23;2.20;;;7.80;99.90;;;;;;5020781;28;20229;-63
2021/11/08 07:57:21;;;;;;;11.97;1.90;;;7.80;99.90;;;;;;5023723;28;20244;-62
2021/11/08 07:59:50;;;;;;;8.93;1.80;;;7.80;99.90;;;;;;5023876;28;20251;-62
2021/11/08 08:02:18;;;;;;;10.07;2.20;;;7.90;99.90;;;;;;5022103;28;20657;-63
2021/11/08 08:04:47;;;;;;;9.43;2.03;;;8.00;99.90;;;;;;5022739;28;20232;-62
2021/11/08 08:07:15;;;;;;;8.37;1.80;;;8.00;99.90;;;;;;5010023;28;20601;-62
2021/11/08 08:09:43;;;;;;;9.20;1.50;;;8.20;99.90;;;;;;5023761;28;20235;-62
2021/11/08 08:12:12;;;;;;;8.87;1.90;;;8.20;99.90;;;;;;5023469;28;20826;-62
2021/11/08 08:14:40;;;;;;;10.87;2.80;;;8.30;99.90;;;;;;5023304;28;20245;-62
2021/11/08 08:17:10;;;;;;;9.27;2.20;;;8.40;99.90;;;;;;5023103;28;20298;-63
2021/11/08 08:19:38;;;;;;;8.80;1.90;;;8.40;99.90;;;;;;5023577;28;20243;-62
2021/11/08 08:22:08;;;;;;;7.43;1.90;;;8.50;99.90;;;;;;5023320;28;20240;-62
2021/11/08 08:24:36;;;;;;;11.37;2.10;;;8.50;99.90;;;;;;5023177;28;20248;-62
2021/11/08 08:27:05;;;;;;;8.03;1.53;;;8.60;99.90;;;;;;5023016;28;20287;-62
2021/11/08 08:29:33;;;;;;;9.07;2.20;;;8.60;99.90;;;;;;5023719;28;20232;-62
2021/11/08 08:32:03;;;;;;;10.97;2.10;;;8.80;99.90;;;;;;5023282;28;20604;-62
2021/11/08 08:34:50;;;;;;;13.60;2.27;;;8.80;99.90;;;;;;5017525;28;20247;-63
2021/11/08 08:37:18;;;;;;;7.67;2.20;;;9.00;99.90;;;;;;5021986;28;20642;-62
2021/11/08 08:39:48;;;;;;;7.17;1.83;;;9.10;99.90;;;;;;5023337;28;20239;-62
2021/11/08 08:42:17;;;;;;;9.10;2.00;;;9.20;99.90;;;;;;5021800;28;20250;-62
2021/11/08 08:44:46;;;;;;;15.00;2.80;;;9.30;99.90;;;;;;5022989;28;20243;-62
2021/11/08 08:47:14;;;;;;;12.67;1.90;;;9.40;99.90;;;;;;5023097;28;20380;-62
2021/11/08 08:49:43;;;;;;;8.63;1.73;;;9.60;99.90;;;;;;5022633;28;20251;-63
2021/11/08 08:52:12;;;;;;;7.07;1.60;;;9.60;99.90;;;;;;5023139;28;20322;-63
2021/11/08 08:54:41;;;;;;;9.13;1.97;;;9.70;99.90;;;;;;5026803;28;20240;-62
2021/11/08 08:57:09;;;;;;;7.60;1.90;;;9.90;99.90;;;;;;5026609;28;20241;-62
2021/11/08 08:59:39;;;;;;;10.87;2.50;;;9.90;99.90;;;;;;5026927;28;20268;-62
2021/11/08 09:02:08;;;;;;;12.63;2.13;;;9.70;99.90;;;;;;5026523;28;20264;-62
2021/11/08 09:04:37;;;;;;;9.17;2.03;;;9.70;99.90;;;;;;5025504;28;20233;-63
2021/11/08 09:07:06;;;;;;;6.63;1.73;;;9.80;99.90;;;;;;5026853;28;20663;-63
2021/11/08 09:09:37;;;;;;;9.77;2.07;;;9.80;99.90;;;;;;5025996;28;20243;-62
2021/11/08 09:12:06;;;;;;;11.87;2.10;;;9.70;99.90;;;;;;5026593;28;20271;-62
2021/11/08 09:14:37;;;;;;;10.67;2.10;;;9.70;99.90;;;;;;5025291;28;20279;-62
2021/11/08 09:17:07;;;;;;;11.10;2.07;;;9.60;99.90;;;;;;5026167;28;20241;-62
2021/11/08 09:19:35;;;;;;;8.83;2.57;;;9.70;99.90;;;;;;5026251;28;20241;-62
2021/11/08 09:22:04;;;;;;;12.50;2.47;;;9.80;99.90;;;;;;5025856;28;20228;-63
2021/11/08 09:24:32;;;;;;;13.30;2.40;;;9.70;99.90;;;;;;5026622;28;20244;-63
2021/11/08 09:27:03;;;;;;;12.07;2.47;;;9.70;99.90;;;;;;5026467;28;20824;-62
2021/11/08 09:29:31;;;;;;;8.00;2.00;;;9.60;99.90;;;;;;5018882;28;20244;-62
2021/11/08 09:32:00;;;;;;;10.10;2.03;;;9.60;99.90;;;;;;5026101;28;20237;-62
2021/11/08 09:34:29;;;;;;;10.07;2.00;;;9.50;99.90;;;;;;5026059;28;20248;-62
2021/11/08 09:36:59;;;;;;;11.73;2.43;;;9.50;99.90;;;;;;5026403;28;20275;-63
2021/11/08 09:39:29;;;;;;;8.20;1.67;;;9.30;99.90;;;;;;5025695;28;21108;-62
2021/11/08 09:42:03;;;;;;;11.03;2.40;;;9.30;99.90;;;;;;5025975;28;20236;-62
2021/11/08 09:44:31;;;;;;;11.23;2.23;;;9.20;99.90;;;;;;5018450;28;20332;-62
2021/11/08 09:47:01;;;;;;;14.90;2.27;;;9.20;99.90;;;;;;5024850;28;20240;-63
2021/11/08 09:49:31;;;;;;;14.10;2.23;;;9.30;99.90;;;;;;5017331;28;20248;-63
2021/11/08 09:52:01;;;;;;;10.87;2.57;;;9.30;99.90;;;;;;5024530;28;20282;-62
2021/11/08 09:54:40;;;;;;;9.17;2.20;;;9.30;99.90;;;;;;5022711;28;20331;-62
2021/11/08 09:57:10;;;;;;;8.33;2.03;;;9.30;99.90;;;;;;5024365;28;20725;-62
2021/11/08 09:59:40;;;;;;;10.23;2.13;;;9.40;99.90;;;;;;5023179;28;20236;-62
2021/11/08 10:02:12;;;;;;;8.33;1.73;;;9.40;99.90;;;;;;5023978;28;20689;-62
2021/11/08 10:04:42;;;;;;;9.00;2.00;;;9.50;99.90;;;;;;5023573;28;20732;-63
2021/11/08 10:07:14;;;;;;;11.53;2.57;;;9.60;99.90;;;;;;5023022;28;20723;-62
2021/11/08 10:09:43;;;;;;;9.83;1.80;;;9.70;99.90;;;;;;5023675;28;20783;-63
2021/11/08 10:12:17;;;;;;;10.73;2.30;;;9.70;99.90;;;;;;5023361;28;20315;-62
2021/11/08 10:14:45;;;;;;;17.77;2.40;;;9.70;99.90;;;;;;5023837;28;20244;-62
2021/11/08 10:17:13;;;;;;;10.50;2.20;;;9.70;99.90;;;;;;5024373;28;20267;-62
2021/11/08 10:19:41;;;;;;;14.97;2.70;;;9.60;99.90;;;;;;5023962;28;20236;-63
2021/11/08 10:22:10;;;;;;;12.67;2.47;;;9.60;99.90;;;;;;5024290;28;20240;-63
2021/11/08 10:24:40;;;;;;;10.20;2.53;;;9.70;99.90;;;;;;5024097;28;20713;-62
2021/11/08 10:27:11;;;;;;;13.53;2.23;;;9.70;99.90;;;;;;5023987;28;20236;-63
2021/11/08 10:29:46;;;;;;;11.60;2.13;;;9.70;99.90;;;;;;5024156;28;20332;-62
2021/11/08 10:32:16;;;;;;;7.97;2.10;;;9.70;99.90;;;;;;5023988;28;20244;-62
2021/11/08 10:34:51;;;;;;;14.53;2.67;;;9.80;99.90;;;;;;5024587;28;20775;-63
2021/11/08 10:37:28;;;;;;;14.60;2.83;;;9.80;99.90;;;;;;5025342;28;20244;-62
2021/11/08 10:39:57;;;;;;;14.90;2.40;;;9.80;99.90;;;;;;5021649;28;20244;-63
2021/11/08 10:42:27;;;;;;;9.57;2.10;;;9.80;99.90;;;;;;5024364;28;20227;-62
2021/11/08 10:44:59;;;;;;;11.63;2.23;;;9.80;99.90;;;;;;5024652;28;20618;-62
2021/11/08 10:47:30;;;;;;;11.40;2.03;;;9.90;99.90;;;;;;5024902;28;20666;-62
2021/11/08 10:49:59;;;;;;;8.43;2.20;;;9.90;99.90;;;;;;5021663;28;20236;-63
2021/11/08 10:52:31;;;;;;;11.80;2.70;;;9.90;99.90;;;;;;5024569;28;20725;-63
2021/11/08 10:55:00;;;;;;;9.53;2.27;;;9.90;99.90;;;;;;5023932;28;20236;-62
2021/11/08 10:57:30;;;;;;;12.63;2.90;;;9.80;99.90;;;;;;5016850;28;20240;-62
2021/11/08 11:00:02;;;;;;;11.13;3.03;;;9.90;99.90;;;;;;5024467;28;20607;-62
2021/11/08 11:02:37;;;;;;;12.53;2.50;;;9.90;99.90;;;;;;5012864;28;20232;-63
2021/11/08 11:05:15;;;;;;;12.07;2.80;;;9.90;99.90;;;;;;5023969;28;20331;-62
2021/11/08 11:07:43;;;;;;;13.63;2.60;;;10.00;99.90;;;;;;5024449;28;20314;-62
2021/11/08 11:10:15;;;;;;;11.17;2.40;;;10.10;99.90;;;;;;5022266;28;20719;-62
2021/11/08 11:12:45;;;;;;;10.27;2.10;;;10.10;99.90;;;;;;5024328;28;20240;-63
2021/11/08 11:15:17;;;;;;;11.80;2.47;;;10.10;99.90;;;;;;5023348;28;20469;-62
2021/11/08 11:17:51;;;;;;;12.27;2.03;;;10.10;99.90;;;;;;5024289;28;20706;-63
2021/11/08 11:20:21;;;;;;;8.57;2.20;;;10.10;99.90;;;;;;5023983;28;20265;-63
2021/11/08 11:23:04;;;;;;;7.87;1.90;;;10.10;99.90;;;;;;5023956;28;20241;-63
2021/11/08 11:25:36;;;;;;;8.80;2.07;;;10.10;99.90;;;;;;5020296;28;20608;-62
2021/11/08 11:28:06;;;;;;;8.53;2.00;;;10.00;99.90;;;;;;5024579;28;20248;-62
2021/11/08 11:30:39;;;;;;;9.03;1.90;;;10.00;99.90;;;;;;5023680;28;20708;-62
2021/11/08 11:33:15;;;;;;;11.63;2.10;;;9.90;99.90;;;;;;5023917;28;20244;-62
2021/11/08 11:35:48;;;;;;;11.13;1.83;;;9.90;99.90;;;;;;5023876;28;20665;-62
2021/11/08 11:38:22;;;;;;;6.80;1.90;;;10.00;99.90;;;;;;5024101;28;20264;-62
2021/11/08 11:41:02;;;;;;;10.03;1.87;;;9.90;99.90;;;;;;5023686;28;20327;-62
2021/11/08 11:43:33;;;;;;;7.57;2.07;;;9.90;99.90;;;;;;5015745;28;20243;-62
2021/11/08 11:46:04;;;;;;;7.73;1.80;;;9.90;99.90;;;;;;5023873;28;20592;-61
2021/11/08 11:48:36;;;;;;;8.03;2.37;;;10.00;99.90;;;;;;5018814;28;20240;-62
2021/11/08 11:51:09;;;;;;;10.93;2.20;;;10.00;99.90;;;;;;5023323;28;20324;-63
2021/11/08 11:53:40;;;;;;;5.57;1.70;;;9.90;99.90;;;;;;5023483;28;20750;-63
2021/11/08 11:56:08;;;;;;;6.00;2.03;;;9.90;99.90;;;;;;5023623;28;20287;-62
2021/11/08 11:58:38;;;;;;;9.33;1.97;;;9.80;99.90;;;;;;5023753;28;20305;-62
2021/11/08 12:01:10;;;;;;;6.30;2.00;;;9.80;99.90;;;;;;5022546;28;20237;-62
2021/11/08 12:03:39;;;;;;;6.20;1.80;;;9.80;99.90;;;;;;5022874;28;20245;-62
2021/11/08 12:06:12;;;;;;;5.80;1.70;;;9.90;99.90;;;;;;5022258;28;20260;-62
2021/11/08 12:08:44;;;;;;;5.00;2.00;;;9.90;99.90;;;;;;5023807;28;20268;-62
2021/11/08 12:11:14;;;;;;;6.60;2.60;;;9.90;99.90;;;;;;5023408;28;20240;-62
2021/11/08 12:13:54;;;;;;;8.03;2.00;;;9.90;99.90;;;;;;5020737;28;20328;-61
2021/11/08 12:16:28;;;;;;;7.57;2.33;;;9.90;99.90;;;;;;5021832;28;20298;-62
2021/11/08 12:18:59;;;;;;;5.10;1.90;;;9.90;99.90;;;;;;5019490;28;20293;-61
2021/11/08 12:21:29;;;;;;;6.63;2.17;;;9.90;99.90;;;;;;5021831;28;20237;-62
2021/11/08 12:23:59;;;;;;;6.33;1.93;;;9.90;99.90;;;;;;5023404;28;20247;-61
2021/11/08 12:26:30;;;;;;;6.93;1.77;;;10.00;99.90;;;;;;5024636;28;20243;-60
2021/11/08 12:29:07;;;;;;;5.13;1.70;;;10.00;99.90;;;;;;5027221;28;20448;-60
2021/11/08 12:31:37;;;;;;;6.23;2.00;;;9.90;99.90;;;;;;5022549;28;20588;-60
2021/11/08 12:34:08;;;;;;;5.67;2.03;;;10.00;99.90;;;;;;5026071;28;20247;-61
2021/11/08 12:36:38;;;;;;;8.80;2.23;;;10.00;99.90;;;;;;5024510;28;20278;-61
2021/11/08 12:39:09;;;;;;;5.50;2.10;;;10.00;99.90;;;;;;5027111;28;20240;-62
2021/11/08 12:41:46;;;;;;;5.63;2.33;;;10.00;99.90;;;;;;5026751;28;20779;-62
2021/11/08 12:44:17;;;;;;;8.47;1.90;;;10.00;99.90;;;;;;5026782;28;20232;-61
2021/11/08 12:46:50;;;;;;;7.93;2.10;;;10.00;99.90;;;;;;5023990;28;20739;-62
2021/11/08 12:49:21;;;;;;;7.43;2.37;;;10.00;99.90;;;;;;5026836;28;20653;-62
2021/11/08 12:51:55;;;;;;;5.13;2.27;;;10.00;99.90;;;;;;5026249;28;20872;-61
2021/11/08 12:54:25;;;;;;;10.63;2.93;;;9.90;99.90;;;;;;5025579;28;20321;-62
2021/11/08 12:56:53;;;;;;;7.40;2.93;;;10.00;99.90;;;;;;5026563;28;20247;-61
2021/11/08 12:59:25;;;;;;;4.03;2.30;;;10.00;99.90;;;;;;5026646;28;20250;-62
2021/11/08 13:01:59;;;;;;;7.23;2.90;;;10.00;99.90;;;;;;5025762;28;20306;-62
2021/11/08 13:04:42;;;;;;;8.43;2.70;;;10.10;99.90;;;;;;5022919;28;20568;-61
2021/11/08 13:07:12;;;;;;;6.57;2.33;;;10.10;99.90;;;;;;5026204;28;20696;-62
2021/11/08 13:09:44;;;;;;;5.87;2.03;;;10.10;99.90;;;;;;5026339;28;20240;-61
2021/11/08 13:12:16;;;;;;;6.80;2.40;;;10.10;99.90;;;;;;5025876;28;20335;-61
2021/11/08 13:14:45;;;;;;;4.93;2.30;;;10.10;99.90;;;;;;5026047;28;20237;-61
2021/11/08 13:17:19;;;;;;;4.57;1.90;;;10.20;99.90;;;;;;5025830;28;20266;-62
2021/11/08 13:19:50;;;;;;;5.73;2.00;;;10.10;99.90;;;;;;5026184;28;20291;-62
2021/11/08 13:22:37;;;;;;;5.10;2.00;;;10.10;99.90;;;;;;5016822;28;20240;-62
2021/11/08 13:25:10;;;;;;;4.77;2.13;;;10.20;99.90;;;;;;5024969;28;20256;-62
2021/11/08 13:27:56;;;;;;;4.87;2.47;;;10.10;99.90;;;;;;5025503;28;20237;-62
2021/11/08 13:30:33;;;;;;;4.07;2.20;;;10.10;99.90;;;;;;5024809;28;20648;-62
2021/11/08 13:33:04;;;;;;;5.93;2.37;;;10.10;99.90;;;;;;5024711;28;20232;-63
2021/11/08 13:35:33;;;;;;;6.77;2.40;;;10.10;99.90;;;;;;5016447;28;20245;-63
2021/11/08 13:38:06;;;;;;;6.13;2.40;;;10.10;99.90;;;;;;5024359;28;20604;-62
2021/11/08 13:40:38;;;;;;;5.50;2.47;;;10.20;99.90;;;;;;5020853;28;20241;-62
2021/11/08 13:43:14;;;;;;;8.87;2.73;;;10.20;99.90;;;;;;5025060;28;20236;-63
2021/11/08 13:45:46;;;;;;;5.67;2.80;;;10.20;99.90;;;;;;5020734;28;20240;-62
2021/11/08 13:48:29;;;;;;;5.97;2.83;;;10.20;99.90;;;;;;5023903;28;20327;-62
2021/11/08 13:50:59;;;;;;;8.07;3.10;;;10.20;99.90;;;;;;5025377;28;20336;-62
2021/11/08 13:53:29;;;;;;;6.47;3.27;;;10.20;99.90;;;;;;5025238;28;20236;-62
2021/11/08 13:56:00;;;;;;;7.37;3.20;;;10.10;99.90;;;;;;5023722;28;20335;-62
2021/11/08 13:58:30;;;;;;;8.47;3.20;;;10.10;99.90;;;;;;5024644;28;20243;-63
2021/11/08 14:01:05;;;;;;;8.23;3.20;;;10.10;99.90;;;;;;5025736;28;20251;-62
2021/11/08 14:03:41;;;;;;;7.27;3.20;;;10.10;99.90;;;;;;5019789;28;20241;-61
2021/11/08 14:06:10;;;;;;;6.20;2.93;;;10.10;99.90;;;;;;5024834;28;20228;-62
2021/11/08 14:08:44;;;;;;;11.63;3.10;;;10.10;99.90;;;;;;5025602;28;20603;-62
2021/11/08 14:11:13;;;;;;;7.77;3.40;;;10.10;99.90;;;;;;5025034;28;20240;-62
2021/11/08 14:13:41;;;;;;;7.07;3.07;;;10.10;99.90;;;;;;5022301;28;20227;-63
2021/11/08 14:16:12;;;;;;;9.67;3.77;;;10.10;99.90;;;;;;5024775;28;20265;-62
2021/11/08 14:18:51;;;;;;;7.70;3.00;;;10.10;99.90;;;;;;5019000;28;20241;-62
2021/11/08 14:21:19;;;;;;;9.33;3.37;;;10.20;99.90;;;;;;5023958;28;20331;-62
2021/11/08 14:23:48;;;;;;;7.83;3.27;;;10.20;99.90;;;;;;5024018;28;20268;-62
2021/11/08 14:26:19;;;;;;;12.40;3.47;;;10.20;99.90;;;;;;5025271;28;20236;-62
2021/11/08 14:28:49;;;;;;;9.93;2.90;;;10.20;99.90;;;;;;5024802;28;20245;-62
2021/11/08 14:31:24;;;;;;;10.13;2.83;;;10.30;99.90;;;;;;5025265;28;20291;-62